sensor_id;sensor_type;location;lat;lon;timestamp;P1;durP1;ratioP1;P2;durP2;ratioP2
12986;SDS011;58897;51.960;5.582;2022-08-19T00:01:23;8.90;;;7.27;;
12986;SDS011;58897;51.960;5.582;2022-08-19T00:03:58;9.43;;;7.40;;
12986;SDS011;58897;51.960;5.582;2022-08-19T00:06:27;7.67;;;6.73;;
12986;SDS011;58897;51.960;5.582;2022-08-19T00:08:54;8.13;;;6.70;;
12986;SDS011;58897;51.960;5.582;2022-08-19T00:11:22;10.07;;;6.83;;
12986;SDS011;58897;51.960;5.582;2022-08-19T00:13:51;8.07;;;7.27;;
12986;SDS011;58897;51.960;5.582;2022-08-19T00:16:18;8.53;;;7.37;;
12986;SDS011;58897;51.960;5.582;2022-08-19T00:18:51;8.33;;;6.83;;
12986;SDS011;58897;51.960;5.582;2022-08-19T00:21:18;9.20;;;7.70;;
12986;SDS011;58897;51.960;5.582;2022-08-19T00:23:44;9.10;;;7.37;;
12986;SDS011;58897;51.960;5.582;2022-08-19T00:26:11;9.17;;;7.40;;
12986;SDS011;58897;51.960;5.582;2022-08-19T00:28:37;9.70;;;7.27;;
12986;SDS011;58897;51.960;5.582;2022-08-19T00:31:05;8.20;;;7.20;;
12986;SDS011;58897;51.960;5.582;2022-08-19T00:33:32;9.73;;;8.03;;
12986;SDS011;58897;51.960;5.582;2022-08-19T00:36:00;8.37;;;7.50;;
12986;SDS011;58897;51.960;5.582;2022-08-19T00:38:27;12.27;;;9.20;;
12986;SDS011;58897;51.960;5.582;2022-08-19T00:41:02;9.80;;;8.80;;
12986;SDS011;58897;51.960;5.582;2022-08-19T00:43:29;10.87;;;9.03;;
12986;SDS011;58897;51.960;5.582;2022-08-19T00:45:55;10.47;;;8.97;;
12986;SDS011;58897;51.960;5.582;2022-08-19T00:48:22;9.50;;;8.50;;
12986;SDS011;58897;51.960;5.582;2022-08-19T00:50:50;9.43;;;7.83;;
12986;SDS011;58897;51.960;5.582;2022-08-19T00:53:20;12.13;;;9.50;;
12986;SDS011;58897;51.960;5.582;2022-08-19T00:55:49;11.70;;;9.70;;
12986;SDS011;58897;51.960;5.582;2022-08-19T00:58:19;11.60;;;9.33;;
12986;SDS011;58897;51.960;5.582;2022-08-19T01:00:48;9.40;;;8.40;;
12986;SDS011;58897;51.960;5.582;2022-08-19T01:03:16;13.43;;;9.47;;
12986;SDS011;58897;51.960;5.582;2022-08-19T01:05:45;10.90;;;8.80;;
12986;SDS011;58897;51.960;5.582;2022-08-19T01:08:13;13.70;;;9.23;;
12986;SDS011;58897;51.960;5.582;2022-08-19T01:10:43;11.73;;;9.33;;
12986;SDS011;58897;51.960;5.582;2022-08-19T01:13:15;10.77;;;9.10;;
12986;SDS011;58897;51.960;5.582;2022-08-19T01:15:44;11.00;;;9.03;;
12986;SDS011;58897;51.960;5.582;2022-08-19T01:18:13;11.97;;;9.13;;
12986;SDS011;58897;51.960;5.582;2022-08-19T01:20:42;12.07;;;9.40;;
12986;SDS011;58897;51.960;5.582;2022-08-19T01:23:09;10.33;;;8.53;;
12986;SDS011;58897;51.960;5.582;2022-08-19T01:26:11;10.93;;;8.40;;
12986;SDS011;58897;51.960;5.582;2022-08-19T01:28:29;10.77;;;9.03;;
12986;SDS011;58897;51.960;5.582;2022-08-19T01:31:06;9.90;;;8.47;;
12986;SDS011;58897;51.960;5.582;2022-08-19T01:33:34;9.40;;;7.73;;
12986;SDS011;58897;51.960;5.582;2022-08-19T01:36:09;8.93;;;7.53;;
12986;SDS011;58897;51.960;5.582;2022-08-19T01:38:39;10.07;;;7.20;;
12986;SDS011;58897;51.960;5.582;2022-08-19T01:41:10;10.40;;;7.67;;
12986;SDS011;58897;51.960;5.582;2022-08-19T01:43:37;10.83;;;7.40;;
12986;SDS011;58897;51.960;5.582;2022-08-19T01:46:24;7.77;;;6.90;;
12986;SDS011;58897;51.960;5.582;2022-08-19T01:48:51;8.23;;;6.73;;
12986;SDS011;58897;51.960;5.582;2022-08-19T01:51:17;7.27;;;5.87;;
12986;SDS011;58897;51.960;5.582;2022-08-19T01:53:46;9.27;;;7.13;;
12986;SDS011;58897;51.960;5.582;2022-08-19T01:56:14;7.77;;;6.73;;
12986;SDS011;58897;51.960;5.582;2022-08-19T01:58:42;8.63;;;7.50;;
12986;SDS011;58897;51.960;5.582;2022-08-19T02:01:15;7.93;;;6.80;;
12986;SDS011;58897;51.960;5.582;2022-08-19T02:03:42;7.77;;;6.97;;
12986;SDS011;58897;51.960;5.582;2022-08-19T02:06:08;8.57;;;7.03;;
12986;SDS011;58897;51.960;5.582;2022-08-19T02:08:36;10.40;;;6.87;;
12986;SDS011;58897;51.960;5.582;2022-08-19T02:11:04;8.40;;;7.33;;
12986;SDS011;58897;51.960;5.582;2022-08-19T02:13:32;9.67;;;7.73;;
12986;SDS011;58897;51.960;5.582;2022-08-19T02:16:00;10.10;;;7.97;;
12986;SDS011;58897;51.960;5.582;2022-08-19T02:18:29;10.23;;;7.77;;
12986;SDS011;58897;51.960;5.582;2022-08-19T02:20:56;9.73;;;6.80;;
12986;SDS011;58897;51.960;5.582;2022-08-19T02:23:22;9.43;;;7.30;;
12986;SDS011;58897;51.960;5.582;2022-08-19T02:25:50;8.73;;;7.50;;
12986;SDS011;58897;51.960;5.582;2022-08-19T02:28:18;8.93;;;7.80;;
12986;SDS011;58897;51.960;5.582;2022-08-19T02:30:44;9.77;;;7.87;;
12986;SDS011;58897;51.960;5.582;2022-08-19T02:33:12;10.77;;;8.37;;
12986;SDS011;58897;51.960;5.582;2022-08-19T02:35:42;9.77;;;7.93;;
12986;SDS011;58897;51.960;5.582;2022-08-19T02:38:09;9.60;;;7.80;;
12986;SDS011;58897;51.960;5.582;2022-08-19T02:40:56;10.07;;;7.93;;
12986;SDS011;58897;51.960;5.582;2022-08-19T02:43:24;9.47;;;7.50;;
12986;SDS011;58897;51.960;5.582;2022-08-19T02:45:52;11.70;;;8.53;;
12986;SDS011;58897;51.960;5.582;2022-08-19T02:48:20;8.50;;;7.60;;
12986;SDS011;58897;51.960;5.582;2022-08-19T02:50:49;8.77;;;7.60;;
12986;SDS011;58897;51.960;5.582;2022-08-19T02:53:22;9.73;;;8.07;;
12986;SDS011;58897;51.960;5.582;2022-08-19T02:55:49;9.20;;;8.13;;
12986;SDS011;58897;51.960;5.582;2022-08-19T02:58:16;9.47;;;8.10;;
12986;SDS011;58897;51.960;5.582;2022-08-19T03:00:46;11.13;;;8.53;;
12986;SDS011;58897;51.960;5.582;2022-08-19T03:03:15;10.53;;;8.27;;
12986;SDS011;58897;51.960;5.582;2022-08-19T03:05:42;11.13;;;8.67;;
12986;SDS011;58897;51.960;5.582;2022-08-19T03:08:21;10.93;;;8.23;;
12986;SDS011;58897;51.960;5.582;2022-08-19T03:10:47;9.27;;;7.97;;
12986;SDS011;58897;51.960;5.582;2022-08-19T03:13:15;10.27;;;8.40;;
12986;SDS011;58897;51.960;5.582;2022-08-19T03:15:44;10.30;;;7.27;;
12986;SDS011;58897;51.960;5.582;2022-08-19T03:18:12;13.67;;;8.37;;
12986;SDS011;58897;51.960;5.582;2022-08-19T03:20:44;10.30;;;9.03;;
12986;SDS011;58897;51.960;5.582;2022-08-19T03:23:13;11.37;;;8.83;;
12986;SDS011;58897;51.960;5.582;2022-08-19T03:25:42;11.67;;;8.17;;
12986;SDS011;58897;51.960;5.582;2022-08-19T03:28:11;9.57;;;8.53;;
12986;SDS011;58897;51.960;5.582;2022-08-19T03:30:40;10.23;;;8.67;;
12986;SDS011;58897;51.960;5.582;2022-08-19T03:33:09;10.00;;;8.53;;
12986;SDS011;58897;51.960;5.582;2022-08-19T03:35:43;13.47;;;8.97;;
12986;SDS011;58897;51.960;5.582;2022-08-19T03:38:11;10.97;;;8.87;;
12986;SDS011;58897;51.960;5.582;2022-08-19T03:40:37;9.60;;;7.93;;
12986;SDS011;58897;51.960;5.582;2022-08-19T03:43:04;9.47;;;7.60;;
12986;SDS011;58897;51.960;5.582;2022-08-19T03:45:31;11.70;;;8.50;;
12986;SDS011;58897;51.960;5.582;2022-08-19T03:47:57;11.53;;;8.53;;
12986;SDS011;58897;51.960;5.582;2022-08-19T03:50:24;11.37;;;9.07;;
12986;SDS011;58897;51.960;5.582;2022-08-19T03:52:51;12.03;;;8.97;;
12986;SDS011;58897;51.960;5.582;2022-08-19T03:55:18;12.63;;;9.90;;
12986;SDS011;58897;51.960;5.582;2022-08-19T03:57:45;11.97;;;9.27;;
12986;SDS011;58897;51.960;5.582;2022-08-19T04:00:12;10.53;;;8.93;;
12986;SDS011;58897;51.960;5.582;2022-08-19T04:02:40;12.07;;;9.23;;
12986;SDS011;58897;51.960;5.582;2022-08-19T04:05:23;12.63;;;8.60;;
12986;SDS011;58897;51.960;5.582;2022-08-19T04:07:52;12.00;;;8.43;;
12986;SDS011;58897;51.960;5.582;2022-08-19T04:10:19;13.17;;;8.87;;
12986;SDS011;58897;51.960;5.582;2022-08-19T04:12:45;11.60;;;9.10;;
12986;SDS011;58897;51.960;5.582;2022-08-19T04:15:14;11.30;;;8.93;;
12986;SDS011;58897;51.960;5.582;2022-08-19T04:17:41;11.87;;;9.53;;
12986;SDS011;58897;51.960;5.582;2022-08-19T04:20:07;12.43;;;9.23;;
12986;SDS011;58897;51.960;5.582;2022-08-19T04:22:34;13.17;;;9.53;;
12986;SDS011;58897;51.960;5.582;2022-08-19T04:25:00;11.57;;;8.97;;
12986;SDS011;58897;51.960;5.582;2022-08-19T04:27:27;12.50;;;9.37;;
12986;SDS011;58897;51.960;5.582;2022-08-19T04:29:54;12.77;;;9.70;;
12986;SDS011;58897;51.960;5.582;2022-08-19T04:32:21;13.13;;;10.03;;
12986;SDS011;58897;51.960;5.582;2022-08-19T04:34:48;14.07;;;9.93;;
12986;SDS011;58897;51.960;5.582;2022-08-19T04:37:35;13.13;;;10.13;;
12986;SDS011;58897;51.960;5.582;2022-08-19T04:40:02;14.47;;;11.53;;
12986;SDS011;58897;51.960;5.582;2022-08-19T04:42:49;14.73;;;10.63;;
12986;SDS011;58897;51.960;5.582;2022-08-19T04:45:16;13.30;;;10.30;;
12986;SDS011;58897;51.960;5.582;2022-08-19T04:47:43;12.60;;;9.83;;
12986;SDS011;58897;51.960;5.582;2022-08-19T04:50:23;13.23;;;10.43;;
12986;SDS011;58897;51.960;5.582;2022-08-19T04:52:50;14.13;;;9.77;;
12986;SDS011;58897;51.960;5.582;2022-08-19T04:55:18;14.63;;;10.03;;
12986;SDS011;58897;51.960;5.582;2022-08-19T04:57:45;13.30;;;9.87;;
12986;SDS011;58897;51.960;5.582;2022-08-19T05:00:12;13.73;;;10.57;;
12986;SDS011;58897;51.960;5.582;2022-08-19T05:02:38;16.33;;;10.97;;
12986;SDS011;58897;51.960;5.582;2022-08-19T05:05:05;15.93;;;11.50;;
12986;SDS011;58897;51.960;5.582;2022-08-19T05:07:32;14.63;;;11.30;;
12986;SDS011;58897;51.960;5.582;2022-08-19T05:10:00;11.63;;;9.60;;
12986;SDS011;58897;51.960;5.582;2022-08-19T05:12:27;14.97;;;11.17;;
12986;SDS011;58897;51.960;5.582;2022-08-19T05:14:55;14.37;;;10.70;;
12986;SDS011;58897;51.960;5.582;2022-08-19T05:17:24;15.93;;;12.10;;
12986;SDS011;58897;51.960;5.582;2022-08-19T05:19:54;20.50;;;13.27;;
12986;SDS011;58897;51.960;5.582;2022-08-19T05:22:41;16.40;;;12.53;;
12986;SDS011;58897;51.960;5.582;2022-08-19T05:25:10;16.33;;;12.10;;
12986;SDS011;58897;51.960;5.582;2022-08-19T05:27:40;15.27;;;11.07;;
12986;SDS011;58897;51.960;5.582;2022-08-19T05:30:08;20.60;;;13.23;;
12986;SDS011;58897;51.960;5.582;2022-08-19T05:32:36;17.30;;;12.63;;
12986;SDS011;58897;51.960;5.582;2022-08-19T05:35:04;17.17;;;12.53;;
12986;SDS011;58897;51.960;5.582;2022-08-19T05:37:31;15.53;;;11.33;;
12986;SDS011;58897;51.960;5.582;2022-08-19T05:39:57;14.53;;;10.73;;
12986;SDS011;58897;51.960;5.582;2022-08-19T05:42:24;16.43;;;10.87;;
12986;SDS011;58897;51.960;5.582;2022-08-19T05:44:51;17.80;;;11.20;;
12986;SDS011;58897;51.960;5.582;2022-08-19T05:47:18;14.97;;;11.57;;
12986;SDS011;58897;51.960;5.582;2022-08-19T05:49:46;14.47;;;10.77;;
12986;SDS011;58897;51.960;5.582;2022-08-19T05:52:14;16.43;;;11.37;;
12986;SDS011;58897;51.960;5.582;2022-08-19T05:54:44;13.40;;;9.97;;
12986;SDS011;58897;51.960;5.582;2022-08-19T05:57:16;20.53;;;13.23;;
12986;SDS011;58897;51.960;5.582;2022-08-19T05:59:44;17.57;;;12.03;;
12986;SDS011;58897;51.960;5.582;2022-08-19T06:02:14;16.27;;;11.10;;
12986;SDS011;58897;51.960;5.582;2022-08-19T06:04:40;18.03;;;11.57;;
12986;SDS011;58897;51.960;5.582;2022-08-19T06:07:08;18.50;;;11.67;;
12986;SDS011;58897;51.960;5.582;2022-08-19T06:09:38;19.17;;;12.63;;
12986;SDS011;58897;51.960;5.582;2022-08-19T06:12:05;16.57;;;11.97;;
12986;SDS011;58897;51.960;5.582;2022-08-19T06:14:33;18.53;;;12.20;;
12986;SDS011;58897;51.960;5.582;2022-08-19T06:17:07;21.67;;;14.20;;
12986;SDS011;58897;51.960;5.582;2022-08-19T06:19:33;22.87;;;14.97;;
12986;SDS011;58897;51.960;5.582;2022-08-19T06:22:06;22.77;;;15.13;;
12986;SDS011;58897;51.960;5.582;2022-08-19T06:24:32;29.33;;;16.57;;
12986;SDS011;58897;51.960;5.582;2022-08-19T06:26:59;25.40;;;16.90;;
12986;SDS011;58897;51.960;5.582;2022-08-19T06:29:27;30.90;;;18.37;;
12986;SDS011;58897;51.960;5.582;2022-08-19T06:31:55;35.07;;;21.30;;
12986;SDS011;58897;51.960;5.582;2022-08-19T06:34:24;37.33;;;22.00;;
12986;SDS011;58897;51.960;5.582;2022-08-19T06:36:53;31.60;;;18.43;;
12986;SDS011;58897;51.960;5.582;2022-08-19T06:39:25;34.87;;;21.03;;
12986;SDS011;58897;51.960;5.582;2022-08-19T06:41:55;33.43;;;20.40;;
12986;SDS011;58897;51.960;5.582;2022-08-19T06:44:25;38.40;;;21.00;;
12986;SDS011;58897;51.960;5.582;2022-08-19T06:46:54;40.50;;;21.53;;
12986;SDS011;58897;51.960;5.582;2022-08-19T06:49:21;37.00;;;22.37;;
12986;SDS011;58897;51.960;5.582;2022-08-19T06:51:49;41.93;;;22.57;;
12986;SDS011;58897;51.960;5.582;2022-08-19T06:54:17;42.53;;;23.70;;
12986;SDS011;58897;51.960;5.582;2022-08-19T06:56:45;42.27;;;21.27;;
12986;SDS011;58897;51.960;5.582;2022-08-19T06:59:14;44.70;;;23.10;;
12986;SDS011;58897;51.960;5.582;2022-08-19T07:01:45;47.77;;;23.60;;
12986;SDS011;58897;51.960;5.582;2022-08-19T07:04:17;44.50;;;24.90;;
12986;SDS011;58897;51.960;5.582;2022-08-19T07:06:47;51.47;;;25.57;;
12986;SDS011;58897;51.960;5.582;2022-08-19T07:09:20;50.00;;;25.93;;
12986;SDS011;58897;51.960;5.582;2022-08-19T07:11:48;49.73;;;24.83;;
12986;SDS011;58897;51.960;5.582;2022-08-19T07:14:18;48.13;;;25.07;;
12986;SDS011;58897;51.960;5.582;2022-08-19T07:16:47;48.97;;;26.40;;
12986;SDS011;58897;51.960;5.582;2022-08-19T07:19:16;50.73;;;25.70;;
12986;SDS011;58897;51.960;5.582;2022-08-19T07:21:47;47.80;;;26.17;;
12986;SDS011;58897;51.960;5.582;2022-08-19T07:24:16;47.13;;;26.37;;
12986;SDS011;58897;51.960;5.582;2022-08-19T07:26:43;49.93;;;25.50;;
12986;SDS011;58897;51.960;5.582;2022-08-19T07:29:11;46.63;;;24.90;;
12986;SDS011;58897;51.960;5.582;2022-08-19T07:31:38;42.67;;;23.90;;
12986;SDS011;58897;51.960;5.582;2022-08-19T07:34:09;47.10;;;26.43;;
12986;SDS011;58897;51.960;5.582;2022-08-19T07:36:38;46.57;;;26.60;;
12986;SDS011;58897;51.960;5.582;2022-08-19T07:39:08;49.60;;;27.77;;
12986;SDS011;58897;51.960;5.582;2022-08-19T07:41:43;48.07;;;26.10;;
12986;SDS011;58897;51.960;5.582;2022-08-19T07:44:11;46.87;;;25.70;;
12986;SDS011;58897;51.960;5.582;2022-08-19T07:46:39;45.37;;;26.07;;
12986;SDS011;58897;51.960;5.582;2022-08-19T07:49:14;44.67;;;25.30;;
12986;SDS011;58897;51.960;5.582;2022-08-19T07:51:46;48.80;;;26.57;;
12986;SDS011;58897;51.960;5.582;2022-08-19T07:54:14;49.57;;;26.13;;
12986;SDS011;58897;51.960;5.582;2022-08-19T07:56:41;50.03;;;27.73;;
12986;SDS011;58897;51.960;5.582;2022-08-19T07:59:07;49.57;;;27.00;;
12986;SDS011;58897;51.960;5.582;2022-08-19T08:01:35;47.57;;;25.80;;
12986;SDS011;58897;51.960;5.582;2022-08-19T08:04:07;50.47;;;27.67;;
12986;SDS011;58897;51.960;5.582;2022-08-19T08:06:53;40.80;;;24.40;;
12986;SDS011;58897;51.960;5.582;2022-08-19T08:09:41;41.90;;;24.17;;
12986;SDS011;58897;51.960;5.582;2022-08-19T08:12:16;40.67;;;22.97;;
12986;SDS011;58897;51.960;5.582;2022-08-19T08:15:01;38.60;;;22.30;;
12986;SDS011;58897;51.960;5.582;2022-08-19T08:17:33;36.20;;;21.70;;
12986;SDS011;58897;51.960;5.582;2022-08-19T08:20:17;34.50;;;21.23;;
12986;SDS011;58897;51.960;5.582;2022-08-19T08:22:45;36.90;;;21.60;;
12986;SDS011;58897;51.960;5.582;2022-08-19T08:25:31;33.13;;;20.43;;
12986;SDS011;58897;51.960;5.582;2022-08-19T08:28:00;34.40;;;20.40;;
12986;SDS011;58897;51.960;5.582;2022-08-19T08:30:28;35.63;;;21.07;;
12986;SDS011;58897;51.960;5.582;2022-08-19T08:32:57;32.30;;;20.37;;
12986;SDS011;58897;51.960;5.582;2022-08-19T08:35:24;35.73;;;21.07;;
12986;SDS011;58897;51.960;5.582;2022-08-19T08:37:52;32.43;;;21.33;;
12986;SDS011;58897;51.960;5.582;2022-08-19T08:40:22;33.70;;;20.60;;
12986;SDS011;58897;51.960;5.582;2022-08-19T08:42:58;29.13;;;20.17;;
12986;SDS011;58897;51.960;5.582;2022-08-19T08:45:49;29.77;;;19.13;;
12986;SDS011;58897;51.960;5.582;2022-08-19T08:51:29;26.50;;;18.00;;
12986;SDS011;58897;51.960;5.582;2022-08-19T08:54:02;26.67;;;17.73;;
12986;SDS011;58897;51.960;5.582;2022-08-19T08:56:34;24.77;;;17.10;;
12986;SDS011;58897;51.960;5.582;2022-08-19T08:59:15;23.43;;;15.97;;
12986;SDS011;58897;51.960;5.582;2022-08-19T09:01:46;24.37;;;15.97;;
12986;SDS011;58897;51.960;5.582;2022-08-19T09:04:14;28.87;;;16.43;;
12986;SDS011;58897;51.960;5.582;2022-08-19T09:09:30;25.70;;;15.90;;
12986;SDS011;58897;51.960;5.582;2022-08-19T09:15:02;20.90;;;15.00;;
12986;SDS011;58897;51.960;5.582;2022-08-19T09:17:34;24.03;;;15.07;;
12986;SDS011;58897;51.960;5.582;2022-08-19T09:22:39;20.67;;;14.63;;
12986;SDS011;58897;51.960;5.582;2022-08-19T09:25:07;25.07;;;16.30;;
12986;SDS011;58897;51.960;5.582;2022-08-19T09:27:36;20.53;;;14.87;;
12986;SDS011;58897;51.960;5.582;2022-08-19T09:30:19;24.87;;;15.53;;
12986;SDS011;58897;51.960;5.582;2022-08-19T09:32:49;24.70;;;15.77;;
12986;SDS011;58897;51.960;5.582;2022-08-19T09:35:19;23.00;;;15.20;;
12986;SDS011;58897;51.960;5.582;2022-08-19T09:37:53;24.30;;;14.83;;
12986;SDS011;58897;51.960;5.582;2022-08-19T09:40:25;22.60;;;15.13;;
12986;SDS011;58897;51.960;5.582;2022-08-19T09:42:55;18.37;;;13.90;;
12986;SDS011;58897;51.960;5.582;2022-08-19T09:45:23;23.07;;;16.20;;
12986;SDS011;58897;51.960;5.582;2022-08-19T09:47:50;29.37;;;15.83;;
12986;SDS011;58897;51.960;5.582;2022-08-19T09:50:20;25.00;;;16.53;;
12986;SDS011;58897;51.960;5.582;2022-08-19T09:52:48;24.73;;;15.13;;
12986;SDS011;58897;51.960;5.582;2022-08-19T09:55:22;23.43;;;15.47;;
12986;SDS011;58897;51.960;5.582;2022-08-19T09:57:49;27.80;;;15.00;;
12986;SDS011;58897;51.960;5.582;2022-08-19T10:00:15;25.37;;;14.87;;
12986;SDS011;58897;51.960;5.582;2022-08-19T10:02:42;22.70;;;15.70;;
12986;SDS011;58897;51.960;5.582;2022-08-19T10:05:10;24.33;;;15.60;;
12986;SDS011;58897;51.960;5.582;2022-08-19T10:08:07;23.77;;;14.63;;
12986;SDS011;58897;51.960;5.582;2022-08-19T10:10:39;24.67;;;15.03;;
12986;SDS011;58897;51.960;5.582;2022-08-19T10:13:12;21.90;;;14.17;;
12986;SDS011;58897;51.960;5.582;2022-08-19T10:15:42;22.07;;;13.73;;
12986;SDS011;58897;51.960;5.582;2022-08-19T10:18:12;20.23;;;13.30;;
12986;SDS011;58897;51.960;5.582;2022-08-19T10:20:39;21.47;;;14.50;;
12986;SDS011;58897;51.960;5.582;2022-08-19T10:23:08;22.47;;;13.70;;
12986;SDS011;58897;51.960;5.582;2022-08-19T10:25:35;19.47;;;14.23;;
12986;SDS011;58897;51.960;5.582;2022-08-19T10:28:03;17.97;;;12.93;;
12986;SDS011;58897;51.960;5.582;2022-08-19T10:30:35;20.87;;;12.43;;
12986;SDS011;58897;51.960;5.582;2022-08-19T10:33:03;19.53;;;13.63;;
12986;SDS011;58897;51.960;5.582;2022-08-19T10:35:36;20.03;;;13.40;;
12986;SDS011;58897;51.960;5.582;2022-08-19T10:38:21;20.10;;;10.77;;
12986;SDS011;58897;51.960;5.582;2022-08-19T10:40:57;23.40;;;12.73;;
12986;SDS011;58897;51.960;5.582;2022-08-19T10:43:32;17.63;;;11.90;;
12986;SDS011;58897;51.960;5.582;2022-08-19T10:46:03;16.63;;;12.90;;
12986;SDS011;58897;51.960;5.582;2022-08-19T10:48:40;17.47;;;11.83;;
12986;SDS011;58897;51.960;5.582;2022-08-19T10:51:08;17.47;;;12.73;;
12986;SDS011;58897;51.960;5.582;2022-08-19T10:53:53;20.47;;;13.20;;
12986;SDS011;58897;51.960;5.582;2022-08-19T10:56:21;20.60;;;14.13;;
12986;SDS011;58897;51.960;5.582;2022-08-19T10:59:07;18.73;;;14.17;;
12986;SDS011;58897;51.960;5.582;2022-08-19T11:01:34;22.97;;;14.80;;
12986;SDS011;58897;51.960;5.582;2022-08-19T11:04:02;19.83;;;12.73;;
12986;SDS011;58897;51.960;5.582;2022-08-19T11:06:31;23.53;;;13.93;;
12986;SDS011;58897;51.960;5.582;2022-08-19T11:08:58;23.37;;;15.33;;
12986;SDS011;58897;51.960;5.582;2022-08-19T11:11:26;24.50;;;15.53;;
12986;SDS011;58897;51.960;5.582;2022-08-19T11:13:52;18.30;;;13.00;;
12986;SDS011;58897;51.960;5.582;2022-08-19T11:16:21;19.93;;;14.13;;
12986;SDS011;58897;51.960;5.582;2022-08-19T11:18:50;17.70;;;13.47;;
12986;SDS011;58897;51.960;5.582;2022-08-19T11:21:19;17.93;;;13.00;;
12986;SDS011;58897;51.960;5.582;2022-08-19T11:23:50;20.77;;;14.50;;
12986;SDS011;58897;51.960;5.582;2022-08-19T11:26:19;18.67;;;13.73;;
12986;SDS011;58897;51.960;5.582;2022-08-19T11:28:46;19.17;;;12.97;;
12986;SDS011;58897;51.960;5.582;2022-08-19T11:31:15;21.73;;;14.50;;
12986;SDS011;58897;51.960;5.582;2022-08-19T11:33:45;18.73;;;14.50;;
12986;SDS011;58897;51.960;5.582;2022-08-19T11:36:13;20.77;;;14.03;;
12986;SDS011;58897;51.960;5.582;2022-08-19T11:38:40;22.47;;;15.73;;
12986;SDS011;58897;51.960;5.582;2022-08-19T11:41:07;22.43;;;16.63;;
12986;SDS011;58897;51.960;5.582;2022-08-19T11:43:34;23.77;;;15.57;;
12986;SDS011;58897;51.960;5.582;2022-08-19T11:46:06;22.27;;;15.10;;
12986;SDS011;58897;51.960;5.582;2022-08-19T11:48:36;22.07;;;14.17;;
12986;SDS011;58897;51.960;5.582;2022-08-19T11:51:04;22.57;;;16.70;;
12986;SDS011;58897;51.960;5.582;2022-08-19T11:53:33;23.47;;;16.20;;
12986;SDS011;58897;51.960;5.582;2022-08-19T11:56:00;26.43;;;18.67;;
12986;SDS011;58897;51.960;5.582;2022-08-19T11:58:27;18.80;;;16.07;;
12986;SDS011;58897;51.960;5.582;2022-08-19T12:00:55;21.77;;;17.47;;
12986;SDS011;58897;51.960;5.582;2022-08-19T12:03:22;24.07;;;17.33;;
12986;SDS011;58897;51.960;5.582;2022-08-19T12:05:49;19.97;;;16.00;;
12986;SDS011;58897;51.960;5.582;2022-08-19T12:08:16;20.47;;;16.13;;
12986;SDS011;58897;51.960;5.582;2022-08-19T12:10:44;26.13;;;17.83;;
12986;SDS011;58897;51.960;5.582;2022-08-19T12:13:12;23.43;;;16.73;;
12986;SDS011;58897;51.960;5.582;2022-08-19T12:15:45;19.63;;;16.20;;
12986;SDS011;58897;51.960;5.582;2022-08-19T12:18:13;21.80;;;15.73;;
12986;SDS011;58897;51.960;5.582;2022-08-19T12:20:41;21.03;;;15.97;;
12986;SDS011;58897;51.960;5.582;2022-08-19T12:23:09;21.90;;;17.27;;
12986;SDS011;58897;51.960;5.582;2022-08-19T12:25:37;21.60;;;16.27;;
12986;SDS011;58897;51.960;5.582;2022-08-19T12:28:09;25.27;;;18.00;;
12986;SDS011;58897;51.960;5.582;2022-08-19T12:30:37;23.23;;;16.73;;
12986;SDS011;58897;51.960;5.582;2022-08-19T12:33:04;23.53;;;16.53;;
12986;SDS011;58897;51.960;5.582;2022-08-19T12:35:30;21.50;;;16.73;;
12986;SDS011;58897;51.960;5.582;2022-08-19T12:37:56;22.23;;;16.53;;
12986;SDS011;58897;51.960;5.582;2022-08-19T12:40:24;20.60;;;16.03;;
12986;SDS011;58897;51.960;5.582;2022-08-19T12:42:52;16.77;;;14.40;;
12986;SDS011;58897;51.960;5.582;2022-08-19T12:45:19;19.50;;;14.53;;
12986;SDS011;58897;51.960;5.582;2022-08-19T12:47:46;19.00;;;14.63;;
12986;SDS011;58897;51.960;5.582;2022-08-19T12:50:14;19.40;;;15.33;;
12986;SDS011;58897;51.960;5.582;2022-08-19T12:52:41;18.73;;;14.67;;
12986;SDS011;58897;51.960;5.582;2022-08-19T12:55:08;17.77;;;13.03;;
12986;SDS011;58897;51.960;5.582;2022-08-19T12:57:36;16.10;;;12.93;;
12986;SDS011;58897;51.960;5.582;2022-08-19T13:00:12;17.57;;;12.97;;
12986;SDS011;58897;51.960;5.582;2022-08-19T13:02:43;18.87;;;15.07;;
12986;SDS011;58897;51.960;5.582;2022-08-19T13:05:15;18.07;;;14.77;;
12986;SDS011;58897;51.960;5.582;2022-08-19T13:07:46;18.53;;;14.03;;
12986;SDS011;58897;51.960;5.582;2022-08-19T13:10:13;18.13;;;13.53;;
12986;SDS011;58897;51.960;5.582;2022-08-19T13:12:42;18.80;;;14.27;;
12986;SDS011;58897;51.960;5.582;2022-08-19T13:15:10;18.60;;;14.40;;
12986;SDS011;58897;51.960;5.582;2022-08-19T13:17:40;20.33;;;15.67;;
12986;SDS011;58897;51.960;5.582;2022-08-19T13:20:07;18.90;;;13.53;;
12986;SDS011;58897;51.960;5.582;2022-08-19T13:22:35;21.57;;;15.50;;
12986;SDS011;58897;51.960;5.582;2022-08-19T13:25:03;21.23;;;15.03;;
12986;SDS011;58897;51.960;5.582;2022-08-19T13:27:31;20.17;;;12.83;;
12986;SDS011;58897;51.960;5.582;2022-08-19T13:29:58;18.07;;;14.97;;
12986;SDS011;58897;51.960;5.582;2022-08-19T13:32:43;22.60;;;16.37;;
12986;SDS011;58897;51.960;5.582;2022-08-19T13:35:28;21.03;;;15.07;;
12986;SDS011;58897;51.960;5.582;2022-08-19T13:37:55;22.60;;;14.90;;
12986;SDS011;58897;51.960;5.582;2022-08-19T13:40:22;20.67;;;15.33;;
12986;SDS011;58897;51.960;5.582;2022-08-19T13:42:52;22.33;;;15.00;;
12986;SDS011;58897;51.960;5.582;2022-08-19T13:45:22;20.17;;;13.80;;
12986;SDS011;58897;51.960;5.582;2022-08-19T13:47:51;17.10;;;12.67;;
12986;SDS011;58897;51.960;5.582;2022-08-19T13:50:25;12.57;;;10.03;;
12986;SDS011;58897;51.960;5.582;2022-08-19T13:52:55;13.70;;;9.43;;
12986;SDS011;58897;51.960;5.582;2022-08-19T13:55:22;10.73;;;8.83;;
12986;SDS011;58897;51.960;5.582;2022-08-19T13:57:58;10.07;;;7.53;;
12986;SDS011;58897;51.960;5.582;2022-08-19T14:00:26;9.20;;;8.23;;
12986;SDS011;58897;51.960;5.582;2022-08-19T14:02:55;9.93;;;8.07;;
12986;SDS011;58897;51.960;5.582;2022-08-19T14:05:22;10.10;;;7.23;;
12986;SDS011;58897;51.960;5.582;2022-08-19T14:07:50;7.90;;;6.30;;
12986;SDS011;58897;51.960;5.582;2022-08-19T14:10:17;6.67;;;5.57;;
12986;SDS011;58897;51.960;5.582;2022-08-19T14:12:45;5.27;;;4.30;;
12986;SDS011;58897;51.960;5.582;2022-08-19T14:15:11;7.20;;;4.17;;
12986;SDS011;58897;51.960;5.582;2022-08-19T14:17:39;5.13;;;4.30;;
12986;SDS011;58897;51.960;5.582;2022-08-19T14:20:07;6.27;;;4.70;;
12986;SDS011;58897;51.960;5.582;2022-08-19T14:22:43;6.90;;;4.27;;
12986;SDS011;58897;51.960;5.582;2022-08-19T14:25:15;6.43;;;5.60;;
12986;SDS011;58897;51.960;5.582;2022-08-19T14:27:44;7.57;;;5.90;;
12986;SDS011;58897;51.960;5.582;2022-08-19T14:30:12;12.93;;;6.60;;
12986;SDS011;58897;51.960;5.582;2022-08-19T14:32:41;6.23;;;4.43;;
12986;SDS011;58897;51.960;5.582;2022-08-19T14:35:10;9.27;;;4.03;;
12986;SDS011;58897;51.960;5.582;2022-08-19T14:37:38;6.47;;;3.20;;
12986;SDS011;58897;51.960;5.582;2022-08-19T14:40:11;4.53;;;2.57;;
12986;SDS011;58897;51.960;5.582;2022-08-19T14:42:39;4.87;;;2.60;;
12986;SDS011;58897;51.960;5.582;2022-08-19T14:45:07;3.90;;;2.27;;
12986;SDS011;58897;51.960;5.582;2022-08-19T14:47:34;4.13;;;2.30;;
12986;SDS011;58897;51.960;5.582;2022-08-19T14:50:05;4.40;;;2.47;;
12986;SDS011;58897;51.960;5.582;2022-08-19T14:52:42;3.80;;;2.73;;
12986;SDS011;58897;51.960;5.582;2022-08-19T14:55:09;4.60;;;2.97;;